Time;durP1;ratioP1;P1;durP2;ratioP2;P2;SDS_P1;SDS_P2;PMS_P1;PMS_P2;Temp;Humidity;BMP_temperature;BMP_pressure;BME280_temperature;BME280_humidity;BME280_pressure;Samples;Min_cycle;Max_cycle;Signal;HPM_P1;HPM_P2
2023/10/29 00:01:51;;;;;;;1.83;1.50;;;14.40;50.40;;;;;;20693;6825;140642;-74
2023/10/29 00:04:16;;;;;;;2.20;1.65;;;14.30;50.80;;;;;;20501;6825;278168;-74
2023/10/29 00:06:43;;;;;;;2.07;1.80;;;14.30;50.60;;;;;;20696;6825;122196;-74
2023/10/29 00:09:08;;;;;;;1.90;1.80;;;14.30;50.60;;;;;;20487;6825;277850;-74
2023/10/29 00:11:34;;;;;;;2.00;1.90;;;14.40;50.20;;;;;;20489;6825;303834;-74
2023/10/29 00:13:59;;;;;;;1.70;1.50;;;14.60;49.90;;;;;;20687;6825;117012;-73
2023/10/29 00:16:25;;;;;;;1.53;1.43;;;14.60;50.40;;;;;;20695;6825;117294;-73
2023/10/29 00:18:51;;;;;;;1.70;1.60;;;14.30;51.00;;;;;;20478;6825;342388;-74
2023/10/29 00:21:17;;;;;;;1.47;1.30;;;14.30;50.40;;;;;;20687;6825;117659;-72
2023/10/29 00:23:43;;;;;;;1.70;1.20;;;14.30;50.40;;;;;;20667;6825;120832;-74
2023/10/29 00:26:09;;;;;;;1.70;1.60;;;14.30;50.00;;;;;;20484;6825;281433;-74
2023/10/29 00:28:35;;;;;;;2.57;1.60;;;14.30;49.90;;;;;;20473;6825;309210;-74
2023/10/29 00:31:00;;;;;;;2.73;1.53;;;14.60;49.10;;;;;;20695;6825;117444;-73
2023/10/29 00:33:26;;;;;;;1.30;1.20;;;14.50;49.50;;;;;;20685;6825;117162;-74
2023/10/29 00:35:51;;;;;;;2.00;1.48;;;14.30;50.10;;;;;;20459;6825;336511;-74
2023/10/29 00:38:17;;;;;;;2.50;1.30;;;14.40;48.80;;;;;;20473;6825;307689;-73
2023/10/29 00:40:42;;;;;;;1.53;1.30;;;14.70;49.10;;;;;;20708;6825;117585;-74
2023/10/29 00:43:08;;;;;;;1.60;1.50;;;14.70;49.00;;;;;;20491;6825;306724;-74
2023/10/29 00:45:34;;;;;;;2.00;1.80;;;15.00;47.90;;;;;;20468;6825;306335;-74
2023/10/29 00:48:00;;;;;;;2.07;1.67;;;14.90;47.80;;;;;;20682;6825;117192;-74
2023/10/29 00:50:25;;;;;;;1.33;1.27;;;14.90;48.50;;;;;;20705;6825;121600;-72
2023/10/29 00:52:51;;;;;;;3.08;1.58;;;14.60;49.20;;;;;;20478;6825;307674;-74
2023/10/29 00:55:17;;;;;;;1.67;1.58;;;14.60;48.80;;;;;;20486;6825;278121;-74
2023/10/29 00:57:42;;;;;;;3.17;1.40;;;14.80;48.10;;;;;;20671;6825;121409;-73
2023/10/29 01:00:08;;;;;;;1.87;1.47;;;14.70;48.50;;;;;;20699;6825;117240;-73
2023/10/29 01:02:34;;;;;;;1.60;1.50;;;14.50;48.60;;;;;;20486;6825;314771;-80
2023/10/29 01:05:00;;;;;;;1.93;1.57;;;14.50;48.50;;;;;;20709;6825;117341;-72
2023/10/29 01:07:26;;;;;;;1.43;1.27;;;14.30;49.70;;;;;;20705;6823;117498;-73
2023/10/29 01:09:52;;;;;;;1.60;1.40;;;14.30;49.70;;;;;;20682;6825;117228;-74
2023/10/29 01:12:17;;;;;;;2.40;1.57;;;14.10;50.10;;;;;;20707;6825;119137;-72
2023/10/29 01:14:43;;;;;;;2.05;1.27;;;14.00;50.50;;;;;;20719;6825;117110;-74
2023/10/29 01:17:08;;;;;;;2.00;1.43;;;13.90;50.80;;;;;;20722;6825;117452;-72
2023/10/29 01:19:34;;;;;;;4.27;1.33;;;13.80;51.00;;;;;;20699;6825;117451;-72
2023/10/29 01:22:00;;;;;;;2.40;1.37;;;13.70;51.20;;;;;;20680;6825;140505;-74
2023/10/29 01:24:26;;;;;;;1.83;1.48;;;13.70;51.40;;;;;;20487;6825;320355;-73
2023/10/29 01:26:51;;;;;;;1.70;1.33;;;13.90;49.50;;;;;;20703;6825;116983;-72
2023/10/29 01:29:16;;;;;;;1.60;1.40;;;14.00;50.00;;;;;;20490;6825;307122;-74
2023/10/29 01:31:42;;;;;;;2.00;1.23;;;14.20;49.00;;;;;;20682;6825;117667;-76
2023/10/29 01:34:08;;;;;;;1.10;1.10;;;14.30;49.60;;;;;;20707;6825;117078;-73
2023/10/29 01:36:33;;;;;;;1.65;1.35;;;14.20;50.20;;;;;;20493;6825;336127;-72
2023/10/29 01:38:59;;;;;;;1.90;1.10;;;14.30;48.80;;;;;;20702;6825;121485;-74
2023/10/29 01:41:25;;;;;;;1.50;1.40;;;14.50;47.10;;;;;;20489;6825;319319;-73
2023/10/29 01:43:51;;;;;;;2.35;1.50;;;14.80;46.50;;;;;;20460;6825;337687;-74
2023/10/29 01:46:17;;;;;;;1.93;1.20;;;14.80;46.60;;;;;;20704;6825;117427;-74
2023/10/29 01:48:43;;;;;;;1.37;1.27;;;14.80;47.30;;;;;;20488;6825;282490;-72
2023/10/29 01:51:09;;;;;;;1.37;1.27;;;14.70;47.60;;;;;;20701;6825;117205;-73
2023/10/29 01:53:34;;;;;;;1.40;1.30;;;14.70;47.60;;;;;;20484;6825;307122;-74
2023/10/29 01:56:00;;;;;;;1.50;1.40;;;14.70;47.10;;;;;;20465;6825;315580;-72
2023/10/29 01:58:26;;;;;;;1.70;1.50;;;15.10;46.10;;;;;;20480;6825;337524;-73
2023/10/29 02:00:55;;;;;;;1.58;1.30;;;15.20;46.00;;;;;;20482;6825;336188;-73
2023/10/29 02:03:18;;;;;;;1.80;1.70;;;15.10;45.90;;;;;;20694;6825;117400;-73
2023/10/29 02:05:44;;;;;;;1.60;1.37;;;15.00;46.80;;;;;;20453;6825;283155;-74
2023/10/29 02:08:09;;;;;;;3.70;1.53;;;14.90;46.40;;;;;;20486;6825;307176;-74
2023/10/29 02:10:35;;;;;;;2.67;1.43;;;15.00;46.40;;;;;;20668;6825;118121;-73
2023/10/29 02:13:01;;;;;;;2.15;1.62;;;14.70;47.10;;;;;;20486;6825;323936;-72
2023/10/29 02:15:26;;;;;;;1.45;1.35;;;14.70;47.10;;;;;;20486;6825;316556;-74
2023/10/29 02:17:52;;;;;;;1.10;1.10;;;14.80;47.00;;;;;;20684;6823;127073;-74
2023/10/29 02:20:17;;;;;;;1.50;1.40;;;14.60;47.60;;;;;;20709;6825;117278;-72
2023/10/29 02:22:43;;;;;;;2.30;1.50;;;14.20;48.30;;;;;;20446;6825;310007;-74
2023/10/29 02:25:09;;;;;;;1.95;1.50;;;14.20;47.80;;;;;;20478;6825;284020;-74
2023/10/29 02:27:35;;;;;;;3.33;1.10;;;14.40;47.90;;;;;;20693;6825;123799;-74
2023/10/29 02:30:01;;;;;;;2.50;1.40;;;14.20;48.40;;;;;;20677;6825;117391;-74
2023/10/29 02:32:26;;;;;;;1.10;1.00;;;13.90;49.00;;;;;;20690;6825;117792;-73
2023/10/29 02:34:53;;;;;;;1.48;1.37;;;13.70;49.70;;;;;;20475;6825;315529;-73
2023/10/29 02:37:18;;;;;;;1.87;1.60;;;13.70;48.80;;;;;;20464;6825;306519;-74
2023/10/29 02:39:44;;;;;;;1.40;1.30;;;14.00;47.90;;;;;;20679;6825;116932;-73
2023/10/29 02:42:14;;;;;;;1.33;1.23;;;13.90;48.30;;;;;;20479;6825;277623;-74
2023/10/29 02:44:36;;;;;;;2.28;1.23;;;14.00;47.60;;;;;;20472;6825;338140;-73
2023/10/29 02:47:01;;;;;;;1.73;1.48;;;14.20;47.30;;;;;;20474;6825;276849;-74
2023/10/29 02:49:27;;;;;;;2.58;1.30;;;14.40;46.80;;;;;;20496;6825;279586;-73
2023/10/29 02:51:53;;;;;;;2.78;1.35;;;14.50;46.60;;;;;;20460;6825;339343;-74
2023/10/29 02:54:18;;;;;;;1.70;1.30;;;14.60;46.30;;;;;;20480;6825;308594;-72
2023/10/29 02:56:44;;;;;;;2.10;1.30;;;14.60;45.80;;;;;;20492;6825;278499;-73
2023/10/29 02:59:09;;;;;;;2.00;1.17;;;14.70;45.30;;;;;;20479;6825;310129;-73
2023/10/29 03:01:35;;;;;;;1.53;1.00;;;14.70;44.40;;;;;;20698;6825;117393;-73
2023/10/29 03:04:02;;;;;;;1.47;1.00;;;14.50;45.50;;;;;;20674;6825;117817;-74
2023/10/29 03:06:26;;;;;;;1.95;1.20;;;14.10;46.40;;;;;;20478;6825;306587;-75
2023/10/29 03:08:52;;;;;;;1.90;1.00;;;14.10;46.10;;;;;;20698;6825;119807;-73
2023/10/29 03:11:17;;;;;;;1.33;1.00;;;14.00;46.80;;;;;;20704;6825;121011;-74
2023/10/29 03:13:43;;;;;;;2.27;1.10;;;13.80;48.10;;;;;;20678;6825;117100;-74
2023/10/29 03:16:08;;;;;;;1.23;1.12;;;13.50;47.90;;;;;;20482;6825;335651;-74
2023/10/29 03:18:34;;;;;;;2.20;1.10;;;13.60;47.60;;;;;;20484;6825;285312;-73
2023/10/29 03:21:00;;;;;;;0.80;0.80;;;13.80;47.50;;;;;;20692;6825;117156;-72
2023/10/29 03:23:26;;;;;;;1.73;1.07;;;13.70;47.50;;;;;;20691;6825;116915;-74
2023/10/29 03:25:51;;;;;;;1.67;1.10;;;13.50;48.20;;;;;;20449;6825;278194;-74
2023/10/29 03:28:17;;;;;;;1.37;1.20;;;13.50;47.30;;;;;;20469;6825;315293;-73
2023/10/29 03:30:43;;;;;;;1.10;1.10;;;13.80;47.30;;;;;;20685;6824;118355;-72
2023/10/29 03:33:09;;;;;;;1.50;1.40;;;13.70;46.90;;;;;;20482;6825;342137;-74
2023/10/29 03:35:34;;;;;;;1.13;1.03;;;13.70;46.90;;;;;;20691;6825;122008;-74
2023/10/29 03:38:00;;;;;;;1.00;1.00;;;13.50;47.50;;;;;;20476;6825;281018;-73
2023/10/29 03:40:26;;;;;;;2.20;1.10;;;13.60;46.90;;;;;;20491;6825;287251;-74
2023/10/29 03:42:51;;;;;;;1.77;1.10;;;13.80;46.50;;;;;;20488;6825;283797;-73
2023/10/29 03:45:17;;;;;;;1.30;1.30;;;14.00;47.00;;;;;;20487;6825;277774;-73
2023/10/29 03:47:42;;;;;;;1.40;1.20;;;14.20;45.70;;;;;;20681;6825;117467;-76
2023/10/29 03:50:08;;;;;;;1.43;1.20;;;14.00;46.50;;;;;;20474;6825;307628;-74
2023/10/29 03:52:34;;;;;;;2.30;1.15;;;14.00;46.00;;;;;;20498;6825;301837;-73
2023/10/29 03:54:59;;;;;;;2.33;1.27;;;14.20;45.60;;;;;;20698;6825;120785;-74
2023/10/29 03:57:26;;;;;;;3.03;1.10;;;14.10;46.50;;;;;;20695;6825;118175;-74
2023/10/29 03:59:51;;;;;;;2.63;1.30;;;13.80;47.30;;;;;;20685;6825;147725;-74
2023/10/29 04:02:17;;;;;;;0.80;0.80;;;13.60;48.10;;;;;;20709;6825;118013;-74
2023/10/29 04:04:43;;;;;;;1.30;1.20;;;13.20;49.20;;;;;;20693;6825;117584;-74
2023/10/29 04:07:09;;;;;;;1.50;1.40;;;13.20;49.20;;;;;;20486;6825;301393;-74
2023/10/29 04:09:34;;;;;;;2.67;1.48;;;13.40;48.40;;;;;;20379;6825;314753;-72
2023/10/29 04:12:00;;;;;;;1.73;1.13;;;13.70;48.10;;;;;;20663;6825;117033;-74
2023/10/29 04:14:26;;;;;;;1.30;1.20;;;13.70;48.40;;;;;;20675;6825;117308;-73
2023/10/29 04:16:51;;;;;;;3.03;1.40;;;13.50;48.90;;;;;;20695;6825;116891;-74
2023/10/29 04:19:17;;;;;;;3.72;1.85;;;13.20;49.40;;;;;;20467;6825;344391;-73
2023/10/29 04:21:42;;;;;;;3.27;1.70;;;13.30;50.10;;;;;;20662;6825;119054;-73
2023/10/29 04:24:08;;;;;;;2.87;1.90;;;13.10;50.30;;;;;;20684;6825;117283;-72
2023/10/29 04:26:34;;;;;;;4.73;3.10;;;12.90;50.80;;;;;;20633;6825;117416;-73
2023/10/29 04:28:59;;;;;;;2.70;2.50;;;12.60;51.30;;;;;;20462;6825;336025;-76
2023/10/29 04:31:26;;;;;;;3.00;2.40;;;12.90;51.80;;;;;;20485;6825;278517;-74
2023/10/29 04:33:51;;;;;;;2.50;2.30;;;12.90;51.80;;;;;;20679;6825;118267;-73
2023/10/29 04:36:21;;;;;;;2.62;2.42;;;12.80;51.80;;;;;;20477;6825;313021;-72
2023/10/29 04:38:46;;;;;;;3.33;1.77;;;12.80;51.70;;;;;;20683;6825;118584;-73
2023/10/29 04:41:11;;;;;;;1.87;1.77;;;12.70;51.80;;;;;;20689;6823;118024;-74
2023/10/29 04:43:37;;;;;;;2.35;1.90;;;12.50;52.30;;;;;;20426;6825;335765;-74
2023/10/29 04:46:03;;;;;;;1.67;1.57;;;12.60;51.20;;;;;;20654;6825;121367;-74
2023/10/29 04:48:28;;;;;;;3.83;1.70;;;12.60;51.50;;;;;;20469;6825;283634;-72
2023/10/29 04:50:55;;;;;;;1.50;1.40;;;13.00;49.00;;;;;;20426;6825;306819;-73
2023/10/29 04:53:20;;;;;;;2.43;1.60;;;13.00;49.60;;;;;;20667;6825;116968;-73
2023/10/29 04:55:46;;;;;;;1.55;1.45;;;13.00;49.30;;;;;;20376;6825;286447;-74
2023/10/29 04:58:11;;;;;;;1.90;1.30;;;13.10;48.50;;;;;;20685;6825;117092;-76
2023/10/29 05:00:37;;;;;;;1.40;1.33;;;13.10;49.00;;;;;;20460;6825;344967;-74
2023/10/29 05:03:04;;;;;;;1.12;1.08;;;13.30;48.00;;;;;;20494;6825;307583;-74
2023/10/29 05:05:30;;;;;;;2.10;1.10;;;13.50;46.20;;;;;;20492;6825;338040;-74
2023/10/29 05:07:56;;;;;;;1.00;1.00;;;13.90;45.10;;;;;;20668;6825;117572;-74
2023/10/29 05:10:25;;;;;;;1.90;0.90;;;13.90;45.80;;;;;;20669;6825;121449;-72
2023/10/29 05:12:47;;;;;;;2.00;1.27;;;13.70;46.60;;;;;;20524;6825;286514;-73
2023/10/29 05:15:14;;;;;;;1.03;1.00;;;13.80;46.10;;;;;;20740;6825;116498;-73
2023/10/29 05:17:40;;;;;;;1.83;1.13;;;13.80;46.10;;;;;;20683;6825;117126;-74
2023/10/29 05:20:08;;;;;;;1.17;1.10;;;13.70;47.00;;;;;;20456;6825;285615;-72
2023/10/29 05:22:31;;;;;;;0.90;0.90;;;13.80;47.40;;;;;;20673;6825;120907;-73
2023/10/29 05:25:03;;;;;;;0.80;0.80;;;13.70;48.90;;;;;;20612;6825;124761;-74
2023/10/29 05:27:29;;;;;;;1.73;1.40;;;13.60;48.50;;;;;;20435;6825;341332;-74
2023/10/29 05:29:55;;;;;;;1.20;1.10;;;13.80;48.40;;;;;;20667;6825;120473;-76
2023/10/29 05:32:21;;;;;;;1.27;1.17;;;13.80;48.70;;;;;;20406;6825;335154;-74
2023/10/29 05:34:47;;;;;;;3.30;1.10;;;14.20;48.20;;;;;;20452;6825;311990;-74
2023/10/29 05:37:13;;;;;;;0.90;0.90;;;14.40;47.10;;;;;;20457;6825;303829;-78
2023/10/29 05:39:39;;;;;;;1.40;1.30;;;14.40;47.10;;;;;;20473;6825;306589;-77
2023/10/29 05:42:04;;;;;;;0.80;0.80;;;14.60;46.60;;;;;;20644;6825;117743;-77
2023/10/29 05:44:30;;;;;;;2.13;1.23;;;14.40;47.00;;;;;;20680;6825;116929;-72
2023/10/29 05:46:56;;;;;;;0.93;0.90;;;14.20;48.00;;;;;;20634;6825;117003;-73
2023/10/29 05:49:21;;;;;;;1.33;0.90;;;13.90;48.60;;;;;;20468;6825;338335;-73
2023/10/29 05:51:49;;;;;;;1.27;1.00;;;14.00;47.90;;;;;;20674;6824;117338;-78
2023/10/29 05:54:15;;;;;;;1.20;1.10;;;14.10;47.90;;;;;;20470;6824;336163;-77
2023/10/29 05:56:40;;;;;;;0.73;0.73;;;14.10;47.90;;;;;;20676;6825;117479;-73
2023/10/29 05:59:06;;;;;;;1.47;1.00;;;14.00;48.30;;;;;;20674;6825;117120;-72
2023/10/29 06:01:32;;;;;;;1.37;1.23;;;13.90;48.90;;;;;;20653;6825;71885;-74
2023/10/29 06:03:57;;;;;;;1.40;1.03;;;13.70;49.40;;;;;;20674;6825;120193;-72
2023/10/29 06:06:22;;;;;;;1.27;1.20;;;13.60;49.90;;;;;;20682;6825;117098;-74
2023/10/29 06:08:49;;;;;;;0.90;0.90;;;13.40;50.40;;;;;;20651;6825;123803;-73
2023/10/29 06:11:15;;;;;;;1.47;1.37;;;13.40;50.40;;;;;;20473;6825;276923;-72
2023/10/29 06:13:43;;;;;;;1.95;1.30;;;13.60;49.20;;;;;;20442;6825;316075;-72
2023/10/29 06:16:06;;;;;;;2.05;1.23;;;13.90;47.40;;;;;;20460;6825;292964;-77
2023/10/29 06:18:31;;;;;;;3.60;3.30;;;14.30;46.80;;;;;;20683;6825;117090;-78
2023/10/29 06:20:58;;;;;;;1.80;1.70;;;14.20;47.40;;;;;;20699;6825;116906;-76
2023/10/29 06:23:23;;;;;;;1.60;1.50;;;14.00;48.10;;;;;;20725;6825;67282;-73
2023/10/29 06:25:48;;;;;;;1.60;1.50;;;13.80;48.70;;;;;;20657;6825;124003;-76
2023/10/29 06:28:14;;;;;;;3.13;2.93;;;13.70;49.50;;;;;;20666;6825;124464;-80
2023/10/29 06:30:40;;;;;;;1.23;1.20;;;13.60;50.00;;;;;;20647;6825;117372;-78
2023/10/29 06:33:06;;;;;;;1.42;1.30;;;13.50;50.30;;;;;;20449;6825;336118;-74
2023/10/29 06:35:32;;;;;;;4.03;3.73;;;13.80;49.70;;;;;;20685;6825;118580;-74
2023/10/29 06:37:57;;;;;;;4.63;3.20;;;13.90;49.90;;;;;;20641;6825;119271;-76
2023/10/29 06:40:25;;;;;;;51.17;43.53;;;13.80;50.70;;;;;;20681;6825;117661;-76
2023/10/29 06:42:51;;;;;;;15.37;14.07;;;13.90;50.80;;;;;;20691;6825;118277;-76
2023/10/29 06:45:17;;;;;;;19.10;17.65;;;13.90;50.90;;;;;;20467;6825;313079;-77
2023/10/29 06:47:42;;;;;;;5.25;4.85;;;14.10;48.50;;;;;;20493;6825;276591;-78
2023/10/29 06:50:08;;;;;;;9.25;8.65;;;14.50;47.10;;;;;;20407;6825;306820;-77
2023/10/29 06:52:34;;;;;;;5.20;4.90;;;14.80;45.80;;;;;;20434;6825;279712;-78
2023/10/29 06:55:00;;;;;;;3.00;2.80;;;15.10;45.10;;;;;;20489;6825;292538;-75
2023/10/29 06:57:28;;;;;;;2.17;2.07;;;15.20;46.00;;;;;;20688;6825;117044;-77
2023/10/29 06:59:54;;;;;;;3.53;1.47;;;15.20;46.00;;;;;;20655;6825;117415;-79
2023/10/29 07:02:19;;;;;;;1.90;1.40;;;14.80;48.40;;;;;;20707;6825;118296;-77
2023/10/29 07:04:45;;;;;;;1.93;1.83;;;14.80;48.40;;;;;;20498;6823;308685;-76
2023/10/29 07:07:11;;;;;;;1.90;1.80;;;14.90;48.50;;;;;;20528;6825;280303;-75
2023/10/29 07:09:37;;;;;;;2.80;2.70;;;15.20;48.70;;;;;;20681;6825;117121;-75
2023/10/29 07:12:03;;;;;;;1.90;1.80;;;15.20;48.70;;;;;;20664;6825;117293;-78
2023/10/29 07:14:28;;;;;;;2.37;2.27;;;15.00;49.10;;;;;;20473;6825;304668;-79
2023/10/29 07:16:57;;;;;;;1.50;1.50;;;15.40;47.50;;;;;;20470;6825;286153;-74
2023/10/29 07:19:22;;;;;;;1.70;1.60;;;15.30;47.40;;;;;;20487;6825;335743;-77
2023/10/29 07:21:48;;;;;;;2.08;1.40;;;15.50;47.80;;;;;;20668;6825;117507;-77
2023/10/29 07:24:14;;;;;;;1.50;1.40;;;15.50;47.80;;;;;;20452;6825;319394;-75
2023/10/29 07:26:41;;;;;;;1.50;1.50;;;15.60;47.90;;;;;;20473;6825;278553;-80
2023/10/29 07:29:07;;;;;;;2.47;1.80;;;15.80;49.00;;;;;;20480;6825;278957;-80
2023/10/29 07:31:34;;;;;;;4.10;1.40;;;16.00;48.60;;;;;;20694;6825;117423;-78
2023/10/29 07:34:03;;;;;;;2.90;1.83;;;15.80;49.20;;;;;;20481;6825;335255;-79
2023/10/29 07:36:28;;;;;;;1.47;1.43;;;15.80;49.80;;;;;;20695;6825;121349;-77
2023/10/29 07:38:54;;;;;;;3.03;1.50;;;15.70;49.60;;;;;;20690;6825;117076;-77
2023/10/29 07:41:22;;;;;;;2.67;1.60;;;15.40;50.10;;;;;;20731;6825;117057;-86
2023/10/29 07:43:48;;;;;;;2.30;1.70;;;15.10;50.60;;;;;;20714;6825;117078;-76
2023/10/29 07:46:13;;;;;;;2.63;2.00;;;14.80;51.00;;;;;;20529;6825;306590;-81
2023/10/29 07:48:40;;;;;;;1.90;1.80;;;14.90;50.90;;;;;;20711;6825;117144;-78
2023/10/29 07:51:05;;;;;;;1.70;1.60;;;14.70;50.80;;;;;;20679;6825;117109;-75
2023/10/29 07:53:31;;;;;;;2.83;1.87;;;14.70;51.40;;;;;;20487;6825;306313;-77
2023/10/29 07:56:07;;;;;;;2.17;1.80;;;14.80;50.90;;;;;;20465;6825;281770;-76
2023/10/29 07:58:32;;;;;;;3.40;1.70;;;15.10;50.30;;;;;;20685;6825;118133;-76
2023/10/29 08:00:58;;;;;;;3.03;1.77;;;15.00;50.30;;;;;;20512;6825;122734;-78
2023/10/29 08:03:23;;;;;;;1.50;1.40;;;14.80;50.80;;;;;;20553;6825;118947;-77
2023/10/29 08:05:52;;;;;;;2.00;1.83;;;14.60;51.60;;;;;;20493;6825;314615;-78
2023/10/29 08:08:18;;;;;;;1.80;1.70;;;14.70;50.40;;;;;;20491;6825;307619;-79
2023/10/29 08:10:44;;;;;;;2.20;2.00;;;15.00;50.20;;;;;;20486;6825;306786;-79
2023/10/29 08:13:10;;;;;;;1.50;1.50;;;15.20;49.40;;;;;;20710;6825;118246;-77
2023/10/29 08:15:38;;;;;;;1.60;1.47;;;15.20;49.60;;;;;;20715;6823;117435;-78
2023/10/29 08:18:04;;;;;;;2.50;1.73;;;15.00;50.10;;;;;;20470;6824;313713;-76
2023/10/29 08:20:31;;;;;;;1.90;1.80;;;15.00;50.60;;;;;;20667;6825;117562;-77
2023/10/29 08:22:56;;;;;;;2.60;2.07;;;15.00;50.50;;;;;;20610;6825;117037;-77
2023/10/29 08:25:22;;;;;;;4.00;2.60;;;14.90;51.20;;;;;;20467;6825;307556;-76
2023/10/29 08:27:48;;;;;;;6.80;6.20;;;15.00;50.60;;;;;;20663;6825;117599;-77
2023/10/29 08:30:13;;;;;;;3.40;2.97;;;15.10;51.00;;;;;;20660;6825;121617;-76
2023/10/29 08:32:39;;;;;;;4.53;2.80;;;15.00;51.40;;;;;;20468;6825;331539;-76
2023/10/29 08:35:08;;;;;;;4.03;2.83;;;15.20;50.80;;;;;;20462;6825;311939;-76
2023/10/29 08:37:34;;;;;;;2.97;2.60;;;15.80;49.80;;;;;;20475;6825;276530;-75
2023/10/29 08:40:01;;;;;;;2.17;1.73;;;16.10;48.60;;;;;;20457;6825;290158;-74
2023/10/29 08:42:26;;;;;;;1.77;1.63;;;16.00;48.60;;;;;;20702;6825;117940;-73
2023/10/29 08:44:58;;;;;;;1.73;1.30;;;16.00;49.20;;;;;;20684;6825;118914;-73
2023/10/29 08:47:25;;;;;;;2.00;1.80;;;15.70;50.50;;;;;;20671;6825;116982;-74
2023/10/29 08:49:51;;;;;;;2.30;1.20;;;15.70;50.40;;;;;;20672;6825;117987;-74
2023/10/29 08:52:17;;;;;;;2.37;2.10;;;15.90;50.60;;;;;;20463;6825;278956;-74
2023/10/29 08:54:42;;;;;;;4.07;2.30;;;15.90;50.50;;;;;;20478;6825;279127;-74
2023/10/29 08:57:08;;;;;;;4.15;2.22;;;16.30;50.80;;;;;;20497;6825;320085;-74
2023/10/29 08:59:34;;;;;;;6.03;2.20;;;16.70;50.50;;;;;;20702;6825;117265;-74
2023/10/29 09:01:59;;;;;;;3.20;2.70;;;16.70;50.50;;;;;;20472;6825;336321;-75
2023/10/29 09:04:26;;;;;;;5.12;2.45;;;16.80;50.10;;;;;;20492;6825;306782;-75
2023/10/29 09:06:52;;;;;;;5.40;1.90;;;17.00;49.90;;;;;;20696;6825;117374;-74
2023/10/29 09:09:18;;;;;;;2.47;1.80;;;16.80;51.10;;;;;;20711;6825;116884;-76
2023/10/29 09:11:46;;;;;;;6.10;2.10;;;16.80;51.10;;;;;;20475;6825;306783;-75
2023/10/29 09:14:11;;;;;;;4.20;2.20;;;16.80;51.20;;;;;;20498;6825;284851;-75
2023/10/29 09:16:35;;;;;;;2.50;2.30;;;17.00;50.80;;;;;;20694;6825;118415;-74
2023/10/29 09:19:01;;;;;;;5.37;2.50;;;16.90;51.00;;;;;;20496;6825;335760;-74
2023/10/29 09:21:28;;;;;;;2.93;2.30;;;16.90;50.10;;;;;;20492;6825;306771;-74
2023/10/29 09:23:54;;;;;;;3.83;2.07;;;17.00;49.30;;;;;;20682;6825;121433;-75
2023/10/29 09:26:21;;;;;;;3.60;2.65;;;16.90;50.50;;;;;;20493;6824;307781;-75
2023/10/29 09:28:46;;;;;;;4.23;2.90;;;16.90;48.30;;;;;;20706;6824;117919;-74
2023/10/29 09:31:16;;;;;;;3.20;2.90;;;16.80;49.70;;;;;;20708;6825;117492;-74
2023/10/29 09:33:41;;;;;;;3.30;2.33;;;16.50;50.20;;;;;;20701;6825;116934;-74
2023/10/29 09:36:07;;;;;;;3.53;3.10;;;16.40;50.80;;;;;;20471;6825;307127;-74
2023/10/29 09:38:33;;;;;;;4.22;3.17;;;16.80;50.40;;;;;;20500;6825;327179;-74
2023/10/29 09:41:00;;;;;;;2.80;2.53;;;16.80;50.30;;;;;;20692;6825;117586;-74
2023/10/29 09:43:27;;;;;;;5.83;2.93;;;16.80;50.50;;;;;;20498;6825;284903;-74
2023/10/29 09:45:52;;;;;;;2.60;2.40;;;17.00;49.30;;;;;;20459;6825;307600;-74
2023/10/29 09:48:18;;;;;;;2.40;2.30;;;17.20;48.50;;;;;;20693;6825;117171;-74
2023/10/29 09:50:44;;;;;;;2.23;2.13;;;17.20;49.00;;;;;;20708;6825;117081;-74
2023/10/29 10:39:25;;;;;;;3.40;2.00;;;19.60;42.60;;;;;;20734;6514;280394;-74
2023/10/29 10:41:51;;;;;;;5.25;2.30;;;19.80;43.90;;;;;;20408;6839;284101;-75
2023/10/29 10:44:21;;;;;;;6.40;5.90;;;20.00;43.90;;;;;;20466;6839;313209;-75
2023/10/29 10:46:46;;;;;;;2.93;2.53;;;20.10;45.50;;;;;;20675;6840;117477;-75
2023/10/29 10:49:13;;;;;;;4.90;2.50;;;20.00;46.00;;;;;;20416;6841;285986;-75
2023/10/29 10:51:39;;;;;;;2.90;2.10;;;20.00;46.00;;;;;;20367;6867;279174;-76
2023/10/29 10:54:04;;;;;;;3.75;1.98;;;20.10;45.30;;;;;;20336;6867;309537;-75
2023/10/29 10:56:31;;;;;;;4.20;2.00;;;20.20;45.20;;;;;;20563;6867;117923;-75
2023/10/29 10:58:56;;;;;;;4.03;2.00;;;20.10;45.10;;;;;;20337;6867;318427;-75
2023/10/29 11:01:24;;;;;;;3.60;1.93;;;20.10;45.00;;;;;;20351;6867;320696;-75
2023/10/29 11:03:49;;;;;;;6.60;2.50;;;20.50;46.00;;;;;;20317;6867;308324;-78
2023/10/29 11:06:16;;;;;;;6.77;2.17;;;20.40;46.10;;;;;;20552;6875;119669;-76
2023/10/29 11:08:42;;;;;;;4.83;2.03;;;20.40;46.60;;;;;;20404;6857;300175;-76
2023/10/29 11:11:08;;;;;;;4.30;2.00;;;20.40;45.90;;;;;;20417;6846;307498;-76
2023/10/29 11:13:34;;;;;;;4.10;2.10;;;20.50;46.10;;;;;;20642;6841;117422;-77
2023/10/29 11:16:06;;;;;;;1.95;1.80;;;20.30;46.40;;;;;;20437;6841;306764;-77
2023/10/29 11:18:34;;;;;;;2.40;2.20;;;20.30;45.30;;;;;;20417;6841;306890;-76
2023/10/29 11:21:00;;;;;;;4.05;3.00;;;20.30;45.20;;;;;;20424;6841;308855;-75
2023/10/29 11:23:25;;;;;;;4.27;3.93;;;20.40;44.40;;;;;;20567;6841;117075;-76
2023/10/29 11:25:51;;;;;;;5.80;3.23;;;20.30;45.40;;;;;;20595;6841;120976;-75
2023/10/29 11:28:34;;;;;;;6.03;3.43;;;20.00;46.10;;;;;;20278;6841;315570;-76
2023/10/29 11:31:19;;;;;;;3.77;2.80;;;20.00;45.20;;;;;;20429;6841;277303;-76
2023/10/29 11:33:44;;;;;;;4.10;1.73;;;20.20;45.00;;;;;;20624;6841;117144;-76
2023/10/29 11:36:41;;;;;;;1.70;1.60;;;20.00;45.70;;;;;;20642;6841;117277;-75
2023/10/29 11:39:16;;;;;;;2.17;2.00;;;19.80;46.30;;;;;;20607;6841;117186;-76
2023/10/29 11:41:48;;;;;;;2.70;1.80;;;19.50;46.80;;;;;;20654;6841;117563;-76
2023/10/29 11:44:24;;;;;;;2.20;2.00;;;19.30;47.20;;;;;;20444;6841;315923;-76
2023/10/29 11:47:01;;;;;;;2.22;2.03;;;19.50;46.10;;;;;;20418;6841;347347;-76
2023/10/29 11:49:25;;;;;;;2.17;1.80;;;20.00;46.60;;;;;;20641;6837;117811;-75
2023/10/29 11:51:57;;;;;;;16.40;15.03;;;20.00;46.60;;;;;;20641;6838;124663;-74
2023/10/29 11:54:18;;;;;;;3.50;3.27;;;19.90;47.30;;;;;;20639;6839;121825;-75
2023/10/29 11:56:44;;;;;;;3.17;2.80;;;19.80;47.40;;;;;;20656;6839;117421;-74
2023/10/29 11:59:10;;;;;;;3.87;3.50;;;19.60;47.40;;;;;;20635;6842;117680;-75
2023/10/29 12:01:36;;;;;;;2.40;2.30;;;19.60;47.40;;;;;;20636;6842;117205;-75
2023/10/29 12:04:03;;;;;;;3.53;3.20;;;19.60;47.60;;;;;;20403;6846;460277;-75
2023/10/29 12:06:42;;;;;;;2.97;2.40;;;19.80;45.50;;;;;;20644;6846;118115;-74
2023/10/29 12:09:14;;;;;;;2.30;2.20;;;19.90;45.90;;;;;;20421;6846;285593;-75
2023/10/29 12:11:40;;;;;;;2.67;2.43;;;20.10;44.20;;;;;;20501;6876;117989;-75
2023/10/29 12:14:05;;;;;;;3.10;2.00;;;20.20;44.70;;;;;;20545;6874;120814;-75
2023/10/29 12:16:32;;;;;;;3.93;3.57;;;20.10;45.10;;;;;;20553;6865;117858;-75
2023/10/29 12:18:57;;;;;;;3.80;3.27;;;20.00;45.60;;;;;;20598;6852;117638;-75
2023/10/29 12:21:22;;;;;;;4.17;2.00;;;19.90;46.10;;;;;;20453;6827;279170;-75
2023/10/29 12:23:49;;;;;;;2.10;1.63;;;20.00;44.70;;;;;;20623;6842;118139;-75
2023/10/29 12:26:14;;;;;;;3.77;1.60;;;20.00;46.60;;;;;;20648;6842;118345;-76
2023/10/29 12:28:40;;;;;;;1.50;1.40;;;19.90;45.70;;;;;;20648;6842;117635;-78
2023/10/29 12:31:06;;;;;;;1.90;1.63;;;19.80;46.40;;;;;;20422;6842;337933;-76
2023/10/29 12:33:33;;;;;;;2.00;1.90;;;20.00;45.90;;;;;;20435;6840;293391;-77
2023/10/29 12:35:59;;;;;;;1.80;1.40;;;20.30;44.90;;;;;;20629;6840;120241;-77
2023/10/29 12:38:22;;;;;;;1.87;1.13;;;20.40;45.40;;;;;;20569;6854;117520;-78
2023/10/29 12:41:04;;;;;;;2.12;1.60;;;20.20;45.90;;;;;;20455;6827;317177;-76
2023/10/29 12:43:40;;;;;;;2.25;1.20;;;20.30;45.40;;;;;;20428;6835;337443;-77
2023/10/29 12:46:05;;;;;;;2.25;1.10;;;20.60;43.10;;;;;;20394;6835;343405;-77
2023/10/29 12:48:31;;;;;;;2.40;1.00;;;20.90;42.20;;;;;;20426;6846;315504;-76
2023/10/29 12:50:57;;;;;;;1.63;1.10;;;21.20;40.20;;;;;;20466;6846;311760;-79
2023/10/29 12:53:22;;;;;;;2.67;1.13;;;21.40;39.90;;;;;;20426;6846;307185;-78
2023/10/29 12:55:48;;;;;;;2.27;0.87;;;21.50;40.00;;;;;;20305;6845;309042;-79
2023/10/29 12:58:14;;;;;;;0.70;0.70;;;21.60;36.90;;;;;;20435;6837;308195;-78
2023/10/29 13:00:39;;;;;;;0.80;0.80;;;21.70;37.10;;;;;;20650;6835;121026;-76
2023/10/29 13:03:05;;;;;;;3.30;0.90;;;21.60;38.40;;;;;;20666;6837;116993;-77
2023/10/29 13:05:31;;;;;;;3.30;0.50;;;21.30;38.90;;;;;;20637;6837;117047;-77
2023/10/29 13:07:57;;;;;;;1.93;0.60;;;21.10;39.60;;;;;;20592;6837;117702;-77
2023/10/29 13:10:23;;;;;;;0.70;0.57;;;21.00;38.50;;;;;;20405;6837;277397;-79
2023/10/29 13:12:49;;;;;;;0.47;0.47;;;21.00;38.30;;;;;;20593;6837;118091;-79
2023/10/29 13:15:15;;;;;;;1.50;0.47;;;21.00;39.40;;;;;;20607;6837;117043;-78
2023/10/29 13:17:41;;;;;;;1.20;0.60;;;20.80;39.60;;;;;;20613;6837;120936;-80